Time;durP1;ratioP1;P1;durP2;ratioP2;P2;SDS_P1;SDS_P2;PMS_P1;PMS_P2;Temp;Humidity;BMP_temperature;BMP_pressure;BME280_temperature;BME280_humidity;BME280_pressure;Samples;Min_cycle;Max_cycle;Signal;HPM_P1;HPM_P2
2023/01/15 00:00:47;;;;;;;;;;;9.00;63.60;;;;;;5067171;28;20000;-85
2023/01/15 00:03:13;;;;;;;;;;;8.90;64.20;;;;;;5066800;28;19936;-85
2023/01/15 00:05:39;;;;;;;;;;;8.90;64.60;;;;;;5066723;28;19916;-85
2023/01/15 00:08:04;;;;;;;;;;;8.90;65.30;;;;;;5066518;28;20326;-85
2023/01/15 00:10:30;;;;;;;;;;;8.80;66.00;;;;;;5048928;28;20107;-85
2023/01/15 00:12:55;;;;;;;;;;;8.80;66.60;;;;;;5050039;28;20025;-84
2023/01/15 00:15:21;;;;;;;;;;;8.80;67.20;;;;;;5066108;28;20388;-84
2023/01/15 00:17:46;;;;;;;;;;;8.70;67.60;;;;;;5068037;28;19920;-84
2023/01/15 00:20:12;;;;;;;;;;;8.70;67.90;;;;;;5049770;28;19916;-85
2023/01/15 00:22:39;;;;;;;;;;;8.60;68.20;;;;;;5066088;28;19909;-84
2023/01/15 00:27:49;;;;;;;;;;;8.60;68.90;;;;;;5067127;28;19920;-84
2023/01/15 00:30:16;;;;;;;;;;;8.50;68.90;;;;;;5047659;28;19976;-85
2023/01/15 00:32:42;;;;;;;;;;;8.50;69.00;;;;;;5065776;28;19920;-85
2023/01/15 00:35:11;;;;;;;;;;;8.50;68.90;;;;;;5038519;28;19909;-85
2023/01/15 00:37:36;;;;;;;;;;;8.50;68.90;;;;;;5057905;28;20004;-84
2023/01/15 00:40:02;;;;;;;;;;;8.40;69.10;;;;;;5042921;28;20373;-86
2023/01/15 00:42:28;;;;;;;;;;;8.40;69.20;;;;;;5061290;28;20381;-83
2023/01/15 00:44:53;;;;;;;;;;;8.40;69.30;;;;;;5062630;28;19913;-84
2023/01/15 00:47:19;;;;;;;;;;;8.40;69.40;;;;;;5063631;28;19909;-84
2023/01/15 00:49:45;;;;;;;;;;;8.40;69.50;;;;;;5063619;28;19916;-85
2023/01/15 00:52:11;;;;;;;;;;;8.40;69.80;;;;;;5046212;28;19913;-85
2023/01/15 00:54:37;;;;;;;;;;;8.40;70.20;;;;;;5065373;28;19909;-84
2023/01/15 00:57:02;;;;;;;;;;;8.40;70.60;;;;;;5065353;28;20054;-85
2023/01/15 00:59:28;;;;;;;;;;;8.40;70.80;;;;;;5048000;28;19909;-85
2023/01/15 01:01:53;;;;;;;;;;;8.40;71.10;;;;;;5065894;28;19920;-85
2023/01/15 01:04:19;;;;;;;;;;;8.40;71.50;;;;;;5066420;28;20361;-85
2023/01/15 01:06:45;;;;;;;;;;;8.30;71.90;;;;;;5070857;28;19909;-85
2023/01/15 01:09:14;;;;;;;;;;;8.30;72.50;;;;;;5052159;28;19908;-86
2023/01/15 01:11:39;;;;;;;;;;;8.30;72.90;;;;;;5050083;28;20006;-85
2023/01/15 01:14:05;;;;;;;;;;;8.30;73.00;;;;;;5068321;28;20351;-85
2023/01/15 01:16:34;;;;;;;;;;;8.30;73.00;;;;;;5071600;28;19909;-84
2023/01/15 01:19:02;;;;;;;;;;;8.30;73.10;;;;;;5047708;28;19941;-85
2023/01/15 01:21:28;;;;;;;;;;;8.30;73.00;;;;;;5046572;28;20284;-85
2023/01/15 01:23:54;;;;;;;;;;;8.30;73.00;;;;;;5048786;28;20006;-84
2023/01/15 01:26:19;;;;;;;;;;;8.30;73.00;;;;;;5064974;28;19909;-84
2023/01/15 01:28:49;;;;;;;;;;;8.30;72.80;;;;;;5047319;28;19951;-85
2023/01/15 01:31:15;;;;;;;;;;;8.30;72.80;;;;;;5069074;28;20420;-86
2023/01/15 01:33:40;;;;;;;;;;;8.30;72.60;;;;;;5066275;28;19913;-86
2023/01/15 01:36:06;;;;;;;;;;;8.40;72.60;;;;;;5057451;28;19955;-85
2023/01/15 01:38:32;;;;;;;;;;;8.30;72.80;;;;;;5065530;28;19909;-85
2023/01/15 01:40:58;;;;;;;;;;;8.30;73.20;;;;;;5066574;28;19913;-85
2023/01/15 01:43:24;;;;;;;;;;;8.30;73.50;;;;;;5066860;28;19955;-85
2023/01/15 01:45:50;;;;;;;;;;;8.30;73.80;;;;;;5049480;28;20067;-85
2023/01/15 01:48:17;;;;;;;;;;;8.30;74.30;;;;;;5066947;28;20369;-85
2023/01/15 01:50:43;;;;;;;;;;;8.20;74.50;;;;;;5042359;28;19916;-85
2023/01/15 01:53:11;;;;;;;;;;;8.20;74.60;;;;;;5027627;28;19944;-84
2023/01/15 01:55:37;;;;;;;;;;;8.20;74.60;;;;;;5044672;28;19952;-85
2023/01/15 01:58:03;;;;;;;;;;;8.20;75.00;;;;;;5041780;28;19910;-85
2023/01/15 02:00:30;;;;;;;;;;;8.20;75.30;;;;;;5040545;28;20459;-85
2023/01/15 02:02:55;;;;;;;;;;;8.20;75.40;;;;;;5022490;28;19913;-85
2023/01/15 02:05:27;;;;;;;;;;;8.20;75.60;;;;;;5029894;28;19985;-85
2023/01/15 02:07:53;;;;;;;;;;;8.10;75.90;;;;;;5031054;28;19913;-84
2023/01/15 02:10:19;;;;;;;;;;;8.10;76.30;;;;;;5022114;28;19918;-83
2023/01/15 02:12:49;;;;;;;;;;;8.10;76.50;;;;;;5029222;28;19917;-83
2023/01/15 02:15:17;;;;;;;;;;;8.10;76.50;;;;;;5026765;28;20325;-83
2023/01/15 02:17:43;;;;;;;;;;;8.10;76.40;;;;;;5041636;28;19980;-84
2023/01/15 02:20:27;;;;;;;;;;;8.10;76.30;;;;;;5039575;28;19909;-83
2023/01/15 02:22:53;;;;;;;;;;;8.10;76.20;;;;;;5047265;28;19901;-85
2023/01/15 02:25:18;;;;;;;;;;;8.00;76.10;;;;;;5056424;28;19921;-84
2023/01/15 02:28:13;;;;;;;;;;;8.00;76.20;;;;;;5049327;28;19909;-84
2023/01/15 02:30:41;;;;;;;;;;;8.00;76.60;;;;;;5035104;28;19910;-85
2023/01/15 02:33:10;;;;;;;;;;;8.00;76.80;;;;;;5048420;28;19913;-84
2023/01/15 02:35:38;;;;;;;;;;;8.00;77.00;;;;;;5056670;28;19909;-84
2023/01/15 02:38:10;;;;;;;;;;;8.00;77.20;;;;;;5051918;28;19913;-85
2023/01/15 02:40:36;;;;;;;;;;;8.00;77.50;;;;;;5052428;28;19909;-85
2023/01/15 02:43:04;;;;;;;;;;;7.90;77.80;;;;;;5052298;28;19909;-84
2023/01/15 02:45:31;;;;;;;;;;;7.90;78.20;;;;;;5052641;28;20290;-84
2023/01/15 02:47:59;;;;;;;;;;;7.90;78.60;;;;;;5070093;28;20023;-85
2023/01/15 02:50:28;;;;;;;;;;;7.90;78.90;;;;;;5069927;28;19908;-84
2023/01/15 02:52:58;;;;;;;;;;;7.90;79.10;;;;;;5053276;28;19913;-83
2023/01/15 02:55:28;;;;;;;;;;;7.90;79.40;;;;;;5073196;28;19984;-83
2023/01/15 02:57:57;;;;;;;;;;;7.90;79.70;;;;;;5068982;28;19912;-84
2023/01/15 03:00:23;;;;;;;;;;;7.90;79.90;;;;;;5069581;28;19908;-84
2023/01/15 03:02:52;;;;;;;;;;;7.90;80.00;;;;;;5050973;28;20007;-84
2023/01/15 03:05:23;;;;;;;;;;;7.90;80.20;;;;;;5036892;28;19909;-84
2023/01/15 03:07:51;;;;;;;;;;;7.90;80.40;;;;;;5048685;28;20016;-85
2023/01/15 03:10:17;;;;;;;;;;;8.00;80.70;;;;;;5049070;28;19996;-86
2023/01/15 03:13:01;;;;;;;;;;;8.00;80.80;;;;;;5048960;28;19913;-86
2023/01/15 03:18:17;;;;;;;;;;;8.00;81.10;;;;;;5048374;28;19917;-84
2023/01/15 03:20:47;;;;;;;;;;;8.00;81.30;;;;;;5048182;28;19991;-85
2023/01/15 03:23:15;;;;;;;;;;;8.00;81.60;;;;;;5029756;28;19954;-85
2023/01/15 03:25:46;;;;;;;;;;;8.00;81.70;;;;;;5029703;28;19933;-85
2023/01/15 03:28:13;;;;;;;;;;;8.00;82.00;;;;;;5047894;28;19966;-85
2023/01/15 03:30:39;;;;;;;;;;;8.10;82.30;;;;;;5047653;28;19909;-85
2023/01/15 03:33:04;;;;;;;;;;;8.00;82.70;;;;;;5046213;28;19924;-85
2023/01/15 03:35:49;;;;;;;;;;;8.00;83.10;;;;;;5063493;28;19909;-85
2023/01/15 03:38:16;;;;;;;;;;;8.00;83.50;;;;;;5050900;28;19909;-83
2023/01/15 03:41:05;;;;;;;;;;;8.00;83.90;;;;;;5043380;28;19909;-84
2023/01/15 03:43:42;;;;;;;;;;;8.00;84.10;;;;;;5058645;28;19909;-84
2023/01/15 03:46:20;;;;;;;;;;;8.00;84.60;;;;;;5059416;28;19909;-85
2023/01/15 03:49:23;;;;;;;;;;;8.00;85.10;;;;;;5063901;28;19948;-84
2023/01/15 03:52:01;;;;;;;;;;;8.00;85.40;;;;;;5002962;28;20442;-84
2023/01/15 03:54:32;;;;;;;;;;;8.00;85.70;;;;;;4970554;28;19917;-85
2023/01/15 03:57:12;;;;;;;;;;;8.00;85.80;;;;;;5034758;28;19920;-84
2023/01/15 03:59:43;;;;;;;;;;;8.00;86.00;;;;;;5051498;28;19909;-85
2023/01/15 04:02:11;;;;;;;;;;;8.00;86.20;;;;;;5071249;28;19948;-84
2023/01/15 04:04:38;;;;;;;;;;;8.00;86.20;;;;;;5049784;28;19944;-85
2023/01/15 04:07:06;;;;;;;;;;;8.00;86.20;;;;;;5049041;28;19919;-85
2023/01/15 04:09:35;;;;;;;;;;;7.90;86.20;;;;;;5067360;28;19964;-84
2023/01/15 04:12:01;;;;;;;;;;;8.00;86.40;;;;;;5049712;28;19963;-84
2023/01/15 04:14:29;;;;;;;;;;;8.00;86.50;;;;;;5049828;28;19909;-84
2023/01/15 04:16:54;;;;;;;;;;;8.00;86.50;;;;;;5049944;28;19935;-85
2023/01/15 04:19:20;;;;;;;;;;;8.00;86.40;;;;;;5052213;28;19909;-84
2023/01/15 04:21:45;;;;;;;;;;;8.00;86.40;;;;;;5045505;28;19909;-84
2023/01/15 04:24:11;;;;;;;;;;;8.00;86.30;;;;;;5046031;28;20319;-84
2023/01/15 04:26:36;;;;;;;;;;;8.00;86.90;;;;;;5050114;28;19997;-85
2023/01/15 04:29:02;;;;;;;;;;;8.00;86.20;;;;;;5063899;28;19920;-84
2023/01/15 04:31:27;;;;;;;;;;;8.00;86.00;;;;;;5065115;28;19908;-84
2023/01/15 04:33:53;;;;;;;;;;;8.10;86.10;;;;;;5069023;28;19913;-83
2023/01/15 04:36:18;;;;;;;;;;;8.10;86.10;;;;;;5059210;28;19977;-84
2023/01/15 04:38:44;;;;;;;;;;;8.10;86.00;;;;;;5063512;28;19990;-83
2023/01/15 04:44:06;;;;;;;;;;;8.10;85.80;;;;;;5063488;28;19992;-86
2023/01/15 04:46:39;;;;;;;;;;;8.10;85.80;;;;;;5064253;28;19928;-86
2023/01/15 04:49:05;;;;;;;;;;;8.10;85.80;;;;;;5065602;28;19916;-85
2023/01/15 04:51:31;;;;;;;;;;;8.10;85.90;;;;;;5065166;28;19909;-86
2023/01/15 04:53:58;;;;;;;;;;;8.10;86.10;;;;;;5047551;28;19913;-85
2023/01/15 04:56:23;;;;;;;;;;;8.10;86.20;;;;;;5066080;28;19976;-85
2023/01/15 04:58:49;;;;;;;;;;;8.10;86.30;;;;;;5047833;28;19909;-85
2023/01/15 05:01:15;;;;;;;;;;;8.10;86.20;;;;;;5065093;28;19908;-84
2023/01/15 05:03:41;;;;;;;;;;;8.10;86.20;;;;;;5048154;28;19916;-84
2023/01/15 05:06:07;;;;;;;;;;;8.10;86.20;;;;;;5065544;28;19909;-84
2023/01/15 05:08:32;;;;;;;;;;;8.10;86.00;;;;;;5047284;28;19948;-85
2023/01/15 05:11:05;;;;;;;;;;;8.10;85.90;;;;;;5047427;28;19909;-86
2023/01/15 05:13:32;;;;;;;;;;;8.20;86.00;;;;;;5049494;28;19913;-86
2023/01/15 05:16:10;;;;;;;;;;;8.20;85.90;;;;;;5070311;28;19908;-83
2023/01/15 05:18:35;;;;;;;;;;;8.20;85.80;;;;;;5047596;28;19958;-85
2023/01/15 05:21:01;;;;;;;;;;;8.20;85.80;;;;;;5067270;28;19912;-84
2023/01/15 05:23:27;;;;;;;;;;;8.20;85.90;;;;;;5048068;28;19909;-84
2023/01/15 05:25:52;;;;;;;;;;;8.20;85.80;;;;;;5064242;28;19931;-84
2023/01/15 05:28:18;;;;;;;;;;;8.20;85.80;;;;;;5061913;28;19909;-84
2023/01/15 05:30:43;;;;;;;;;;;8.20;85.80;;;;;;5060790;28;19963;-84
2023/01/15 05:33:09;;;;;;;;;;;8.30;85.80;;;;;;5058503;28;19980;-83
2023/01/15 05:35:35;;;;;;;;;;;8.30;85.70;;;;;;5055238;28;19960;-85
2023/01/15 05:38:02;;;;;;;;;;;8.20;85.70;;;;;;5082034;28;20324;-84
2023/01/15 05:40:28;;;;;;;;;;;8.20;85.70;;;;;;5076981;28;19909;-84
2023/01/15 05:42:54;;;;;;;;;;;8.30;85.80;;;;;;5058840;28;20391;-84
2023/01/15 05:45:19;;;;;;;;;;;8.20;85.70;;;;;;5076530;28;19915;-83
2023/01/15 05:47:45;;;;;;;;;;;8.30;85.50;;;;;;5059128;28;19908;-84
2023/01/15 05:50:10;;;;;;;;;;;8.30;85.30;;;;;;5059004;28;19916;-85
2023/01/15 05:52:36;;;;;;;;;;;8.30;85.30;;;;;;5079297;28;19960;-84
2023/01/15 05:55:01;;;;;;;;;;;8.40;85.30;;;;;;5076249;28;20378;-82
2023/01/15 05:57:27;;;;;;;;;;;8.40;85.20;;;;;;5043020;28;19908;-83
2023/01/15 05:59:54;;;;;;;;;;;8.40;85.70;;;;;;5043540;28;19909;-85
2023/01/15 06:02:19;;;;;;;;;;;8.50;85.10;;;;;;5044583;28;19909;-84
2023/01/15 06:04:45;;;;;;;;;;;8.60;85.10;;;;;;5053757;28;19917;-84
2023/01/15 06:07:11;;;;;;;;;;;8.90;85.10;;;;;;5048723;28;19917;-84
2023/01/15 06:09:36;;;;;;;;;;;9.00;84.90;;;;;;5024741;28;19909;-84
2023/01/15 06:12:02;;;;;;;;;;;9.20;85.10;;;;;;5042195;28;19924;-85
2023/01/15 06:14:27;;;;;;;;;;;9.40;85.00;;;;;;5042007;28;19916;-84
2023/01/15 06:16:53;;;;;;;;;;;9.60;85.60;;;;;;5043198;28;19909;-84
2023/01/15 06:19:18;;;;;;;;;;;9.70;85.30;;;;;;5057362;28;19958;-85
2023/01/15 06:21:44;;;;;;;;;;;10.00;85.00;;;;;;5039499;28;19913;-86
2023/01/15 06:24:10;;;;;;;;;;;10.10;84.60;;;;;;5058052;28;19909;-85
2023/01/15 06:26:36;;;;;;;;;;;10.20;84.30;;;;;;5040709;28;19967;-85
2023/01/15 06:29:02;;;;;;;;;;;10.30;83.60;;;;;;5042238;28;19923;-85
2023/01/15 06:31:27;;;;;;;;;;;10.40;83.60;;;;;;5044796;28;19909;-86
2023/01/15 06:33:53;;;;;;;;;;;10.50;83.30;;;;;;5041504;28;19913;-86
2023/01/15 06:36:23;;;;;;;;;;;10.50;83.20;;;;;;5041948;28;19955;-86
2023/01/15 06:38:48;;;;;;;;;;;10.70;83.30;;;;;;5040660;28;19959;-86
2023/01/15 06:49:34;;;;;;;;;;;11.10;81.90;;;;;;5047703;28;19924;-84
2023/01/15 06:52:00;;;;;;;;;;;11.10;82.50;;;;;;5042008;28;19920;-83
2023/01/15 06:54:26;;;;;;;;;;;11.20;82.30;;;;;;5040124;28;19909;-82
2023/01/15 06:56:52;;;;;;;;;;;11.30;82.40;;;;;;5061994;28;20446;-83
2023/01/15 06:59:18;;;;;;;;;;;11.30;82.30;;;;;;5049916;28;19897;-83
2023/01/15 07:01:43;;;;;;;;;;;11.20;82.80;;;;;;5076604;28;19908;-80
2023/01/15 07:04:09;;;;;;;;;;;11.30;82.90;;;;;;5065557;28;20362;-81
2023/01/15 07:06:35;;;;;;;;;;;11.40;82.50;;;;;;5045632;28;20354;-82
2023/01/15 07:09:00;;;;;;;;;;;11.50;82.60;;;;;;5019741;28;19933;-83
2023/01/15 07:11:26;;;;;;;;;;;11.50;82.60;;;;;;5038497;28;20004;-83
2023/01/15 07:14:04;;;;;;;;;;;11.50;82.60;;;;;;5055788;28;19901;-84
2023/01/15 07:16:34;;;;;;;;;;;11.50;82.70;;;;;;5055484;28;19909;-81
2023/01/15 07:18:59;;;;;;;;;;;11.40;83.00;;;;;;5060258;28;19905;-78
2023/01/15 07:21:25;;;;;;;;;;;11.50;83.10;;;;;;5077834;28;19964;-79
2023/01/15 07:23:51;;;;;;;;;;;11.50;83.20;;;;;;5067558;28;19913;-83
2023/01/15 07:26:16;;;;;;;;;;;11.40;83.50;;;;;;5061076;28;19920;-83
2023/01/15 07:28:42;;;;;;;;;;;11.40;83.60;;;;;;5060906;28;19940;-83
2023/01/15 07:31:07;;;;;;;;;;;11.40;83.60;;;;;;5069466;28;19916;-82
2023/01/15 07:33:33;;;;;;;;;;;11.40;83.80;;;;;;5057190;28;20019;-83
2023/01/15 07:36:01;;;;;;;;;;;11.40;83.80;;;;;;5031527;28;19956;-81
2023/01/15 07:38:26;;;;;;;;;;;11.40;83.80;;;;;;5061322;28;20297;-82
2023/01/15 07:49:44;;;;;;;;;;;11.40;84.10;;;;;;5066120;28;19915;-82
2023/01/15 07:51:52;;;;;;;;;;;11.60;83.70;;;;;;5072815;28;20016;-81
2023/01/15 07:54:18;;;;;;;;;;;11.60;83.90;;;;;;5065274;28;19897;-82
2023/01/15 07:56:43;;;;;;;;;;;11.60;83.70;;;;;;5067571;28;19913;-82
2023/01/15 07:59:09;;;;;;;;;;;11.60;83.70;;;;;;5054282;28;19906;-81
2023/01/15 08:01:34;;;;;;;;;;;11.80;83.00;;;;;;5054861;28;19926;-81
2023/01/15 08:04:00;;;;;;;;;;;11.80;82.80;;;;;;5071542;28;20369;-82
2023/01/15 08:06:25;;;;;;;;;;;11.80;82.80;;;;;;5042713;28;19913;-81
2023/01/15 08:08:51;;;;;;;;;;;11.80;83.10;;;;;;5059262;28;19909;-81
2023/01/15 08:16:47;;;;;;;;;;;11.70;83.90;;;;;;5058610;28;19987;-81
2023/01/15 08:19:13;;;;;;;;;;;11.80;83.80;;;;;;5026976;28;19980;-81
2023/01/15 08:21:38;;;;;;;;;;;11.80;83.80;;;;;;5039874;28;19955;-80
2023/01/15 08:24:04;;;;;;;;;;;11.80;83.60;;;;;;5056966;28;19916;-82
2023/01/15 08:26:29;;;;;;;;;;;11.80;83.40;;;;;;5051781;28;19919;-82
2023/01/15 08:28:55;;;;;;;;;;;11.80;83.40;;;;;;5058113;28;19916;-80
2023/01/15 08:31:21;;;;;;;;;;;11.80;83.50;;;;;;5037569;28;19916;-80
2023/01/15 08:33:48;;;;;;;;;;;11.80;83.40;;;;;;5037582;28;20203;-80
2023/01/15 08:36:15;;;;;;;;;;;11.90;83.30;;;;;;5036502;28;19925;-83
2023/01/15 08:38:41;;;;;;;;;;;11.90;82.80;;;;;;5018472;28;20269;-79
2023/01/15 08:41:06;;;;;;;;;;;12.00;82.80;;;;;;5050695;28;19980;-80
2023/01/15 08:43:32;;;;;;;;;;;12.00;82.60;;;;;;5033263;28;20011;-80
2023/01/15 08:45:58;;;;;;;;;;;12.00;82.50;;;;;;5054597;28;19997;-80
2023/01/15 08:48:24;;;;;;;;;;;12.00;82.50;;;;;;5053811;28;19920;-81
2023/01/15 08:50:50;;;;;;;;;;;12.10;82.10;;;;;;5042749;28;19920;-79
2023/01/15 08:53:17;;;;;;;;;;;12.10;81.40;;;;;;5033214;28;19917;-81
2023/01/15 08:55:43;;;;;;;;;;;12.20;81.20;;;;;;5035423;28;19920;-80
2023/01/15 08:58:09;;;;;;;;;;;12.30;80.40;;;;;;5020308;28;19913;-79
2023/01/15 09:00:34;;;;;;;;;;;12.30;80.10;;;;;;5058399;28;19913;-80
2023/01/15 09:03:00;;;;;;;;;;;12.40;80.00;;;;;;5063901;28;19909;-80
2023/01/15 09:05:27;;;;;;;;;;;12.40;79.60;;;;;;5047988;28;20392;-80
2023/01/15 09:07:53;;;;;;;;;;;12.50;78.90;;;;;;5039244;28;19991;-80
2023/01/15 09:10:19;;;;;;;;;;;12.50;78.60;;;;;;5036896;28;19913;-80
2023/01/15 09:12:44;;;;;;;;;;;12.50;78.60;;;;;;5037973;28;19921;-80
2023/01/15 09:15:10;;;;;;;;;;;12.60;78.40;;;;;;5039472;28;19914;-80
2023/01/15 09:17:39;;;;;;;;;;;12.50;78.20;;;;;;5052895;28;19912;-80
2023/01/15 09:20:07;;;;;;;;;;;12.60;77.90;;;;;;5050577;28;19917;-80
2023/01/15 09:22:32;;;;;;;;;;;12.60;77.10;;;;;;5045509;28;19913;-80
2023/01/15 09:24:58;;;;;;;;;;;12.70;76.70;;;;;;5022574;28;20412;-80
2023/01/15 09:27:24;;;;;;;;;;;12.70;76.20;;;;;;5027921;28;19913;-81
2023/01/15 09:29:50;;;;;;;;;;;12.80;75.20;;;;;;5043953;28;19913;-81
2023/01/15 09:32:15;;;;;;;;;;;12.90;74.60;;;;;;5051525;28;20189;-80
2023/01/15 09:34:41;;;;;;;;;;;13.00;74.00;;;;;;5046830;28;19996;-79
2023/01/15 09:37:06;;;;;;;;;;;13.10;72.70;;;;;;5043389;28;20356;-80
2023/01/15 09:39:32;;;;;;;;;;;13.20;72.40;;;;;;5045348;28;20263;-81
2023/01/15 09:42:11;;;;;;;;;;;13.30;71.50;;;;;;5059888;28;20392;-81
2023/01/15 09:44:55;;;;;;;;;;;13.40;70.40;;;;;;5057975;28;19983;-81
2023/01/15 09:47:24;;;;;;;;;;;13.50;70.00;;;;;;5042007;28;19928;-81
2023/01/15 09:50:08;;;;;;;;;;;13.60;69.40;;;;;;5058244;28;19924;-80
2023/01/15 09:52:49;;;;;;;;;;;13.70;69.20;;;;;;5023069;28;19952;-80
2023/01/15 09:55:23;;;;;;;;;;;13.90;68.20;;;;;;5050265;28;19923;-80
2023/01/15 09:57:53;;;;;;;;;;;14.00;67.50;;;;;;5044129;28;19913;-81
2023/01/15 10:00:20;;;;;;;;;;;14.10;67.20;;;;;;5036007;28;19936;-80
2023/01/15 10:03:01;;;;;;;;;;;14.10;67.30;;;;;;5024727;28;19913;-81
2023/01/15 10:05:28;;;;;;;;;;;14.00;66.90;;;;;;5044900;28;20012;-79
2023/01/15 10:07:59;;;;;;;;;;;14.00;67.20;;;;;;5039612;28;19914;-80
2023/01/15 10:10:34;;;;;;;;;;;13.90;67.40;;;;;;5041454;28;19920;-79
2023/01/15 10:13:03;;;;;;;;;;;13.90;69.50;;;;;;5053838;28;19921;-80
2023/01/15 10:15:35;;;;;;;;;;;13.50;72.30;;;;;;5049538;28;19913;-80
2023/01/15 10:18:01;;;;;;;;;;;13.10;74.90;;;;;;5048540;28;19936;-79
2023/01/15 10:20:27;;;;;;;;;;;12.20;76.90;;;;;;5050495;28;20389;-79
2023/01/15 10:23:11;;;;;;;;;;;11.50;79.90;;;;;;5052365;28;20289;-80
2023/01/15 10:25:41;;;;;;;;;;;10.90;80.80;;;;;;5031978;28;20275;-80
2023/01/15 10:28:15;;;;;;;;;;;10.10;81.80;;;;;;5052962;28;20019;-80
2023/01/15 10:30:43;;;;;;;;;;;9.50;83.70;;;;;;5041512;28;20011;-79
2023/01/15 10:33:22;;;;;;;;;;;9.10;85.80;;;;;;5034044;28;19917;-79
2023/01/15 10:35:58;;;;;;;;;;;8.70;87.90;;;;;;5060177;28;19921;-80
2023/01/15 10:38:33;;;;;;;;;;;8.50;89.10;;;;;;5044926;28;19936;-79
2023/01/15 10:41:06;;;;;;;;;;;8.40;90.30;;;;;;5056947;28;19940;-79
2023/01/15 10:43:45;;;;;;;;;;;8.20;90.60;;;;;;5056482;28;19912;-80
2023/01/15 10:46:15;;;;;;;;;;;8.10;91.00;;;;;;5044564;28;19913;-80
2023/01/15 10:48:43;;;;;;;;;;;8.00;91.00;;;;;;5046551;28;19959;-81
2023/01/15 10:51:14;;;;;;;;;;;7.80;91.40;;;;;;5053481;28;19913;-80
2023/01/15 10:54:12;;;;;;;;;;;;;;;;;;;;;
2023/01/15 10:57:23;;;;;;;;;;;7.70;91.40;;;;;;5053464;28;20011;-80
2023/01/15 11:00:12;;;;;;;;;;;;;;;;;;;;;
2023/01/15 11:03:15;;;;;;;;;;;7.80;91.40;;;;;;5047638;28;20007;-81
2023/01/15 11:06:22;;;;;;;;;;;7.80;91.20;;;;;;5053513;28;20069;-83
2023/01/15 11:09:33;;;;;;;;;;;;;;;;;;;;;
2023/01/15 11:20:17;;;;;;;;;;;7.30;92.60;;;;;;5032091;28;20300;-81
2023/01/15 11:22:42;;;;;;;;;;;7.20;93.00;;;;;;5024884;28;20020;-80
2023/01/15 11:25:09;;;;;;;;;;;7.30;93.10;;;;;;5028524;28;19909;-82
2023/01/15 11:27:36;;;;;;;;;;;7.30;93.30;;;;;;5045521;28;19928;-79
2023/01/15 11:30:03;;;;;;;;;;;7.30;92.90;;;;;;5027371;28;19913;-80
2023/01/15 11:32:30;;;;;;;;;;;7.30;93.10;;;;;;5044525;28;20285;-79
2023/01/15 11:34:57;;;;;;;;;;;7.20;93.10;;;;;;5043845;28;20265;-81
2023/01/15 11:37:23;;;;;;;;;;;7.20;93.30;;;;;;5044850;28;19913;-81
2023/01/15 11:40:07;;;;;;;;;;;7.10;93.60;;;;;;5045163;28;19934;-80
2023/01/15 11:51:21;;;;;;;;;;;6.80;96.20;;;;;;5023284;28;19997;-81
2023/01/15 11:53:48;;;;;;;;;;;6.80;96.00;;;;;;5045325;28;20327;-81
2023/01/15 11:56:33;;;;;;;;;;;6.70;96.60;;;;;;5044901;28;19924;-79
2023/01/15 11:59:08;;;;;;;;;;;6.60;97.30;;;;;;5045206;28;19917;-81
2023/01/15 12:01:41;;;;;;;;;;;6.60;97.50;;;;;;5039982;28;19913;-82
2023/01/15 12:04:21;;;;;;;;;;;6.50;97.20;;;;;;5040039;28;19949;-81
2023/01/15 12:06:47;;;;;;;;;;;6.50;97.70;;;;;;5042901;28;19944;-82
2023/01/15 12:09:21;;;;;;;;;;;6.40;98.00;;;;;;5047192;28;19917;-81
2023/01/15 12:12:05;;;;;;;;;;;6.30;98.50;;;;;;5043050;28;19921;-80
2023/01/15 12:14:31;;;;;;;;;;;6.20;99.80;;;;;;5040226;28;19917;-81
2023/01/15 12:17:12;;;;;;;;;;;6.20;99.90;;;;;;5040483;28;19909;-81
2023/01/15 12:19:43;;;;;;;;;;;6.10;99.90;;;;;;5045401;28;20401;-80
2023/01/15 12:22:09;;;;;;;;;;;6.10;99.90;;;;;;5046229;28;19988;-81
2023/01/15 12:24:34;;;;;;;;;;;6.10;99.90;;;;;;5043295;28;20288;-81
2023/01/15 12:27:29;;;;;;;;;;;6.00;99.90;;;;;;5043452;28;19913;-81
2023/01/15 12:30:17;;;;;;;;;;;6.00;99.90;;;;;;5013090;28;19924;-80
2023/01/15 12:32:45;;;;;;;;;;;6.00;99.90;;;;;;5046351;28;19943;-81
2023/01/15 12:35:21;;;;;;;;;;;6.00;99.90;;;;;;5056547;28;19972;-80
2023/01/15 12:37:50;;;;;;;;;;;6.00;99.90;;;;;;5056321;28;19913;-81
2023/01/15 12:40:21;;;;;;;;;;;5.90;99.90;;;;;;5056042;28;19912;-81
2023/01/15 12:45:35;;;;;;;;;;;5.90;99.90;;;;;;5056984;28;19924;-80
2023/01/15 12:48:04;;;;;;;;;;;6.00;99.90;;;;;;5053476;28;19920;-83
2023/01/15 12:50:43;;;;;;;;;;;6.00;99.90;;;;;;5026713;28;19913;-80
2023/01/15 12:53:21;;;;;;;;;;;6.10;99.90;;;;;;5044379;28;19913;-79
2023/01/15 12:56:10;;;;;;;;;;;6.10;99.90;;;;;;5042372;28;19940;-79
2023/01/15 12:58:50;;;;;;;;;;;6.10;99.90;;;;;;5006588;28;19918;-80
2023/01/15 13:01:38;;;;;;;;;;;6.20;99.90;;;;;;5025831;28;19909;-80
2023/01/15 13:04:09;;;;;;;;;;;6.10;99.90;;;;;;5024333;28;19924;-80
2023/01/15 13:06:37;;;;;;;;;;;6.20;99.90;;;;;;5050028;28;19948;-80
2023/01/15 13:09:08;;;;;;;;;;;6.20;99.90;;;;;;5054640;28;19917;-80
2023/01/15 13:11:33;;;;;;;;;;;6.20;99.90;;;;;;5029936;28;19960;-80
2023/01/15 13:13:59;;;;;;;;;;;6.20;99.90;;;;;;5026985;28;20292;-81
2023/01/15 13:16:30;;;;;;;;;;;6.20;99.90;;;;;;5045230;28;19984;-80
2023/01/15 13:19:14;;;;;;;;;;;6.30;99.90;;;;;;5045904;28;19976;-81
2023/01/15 13:21:41;;;;;;;;;;;6.40;99.90;;;;;;5044738;28;20353;-81
2023/01/15 13:24:12;;;;;;;;;;;6.40;99.90;;;;;;5045562;28;19935;-80
2023/01/15 13:26:44;;;;;;;;;;;6.40;99.90;;;;;;5046381;28;20385;-80
2023/01/15 13:29:15;;;;;;;;;;;6.40;99.90;;;;;;5044930;28;20190;-81
2023/01/15 13:31:52;;;;;;;;;;;6.40;99.90;;;;;;5045690;28;20391;-82
2023/01/15 13:34:23;;;;;;;;;;;6.40;99.90;;;;;;5043698;28;19917;-82
2023/01/15 13:36:49;;;;;;;;;;;6.50;99.90;;;;;;5043943;28;19920;-82
2023/01/15 13:39:19;;;;;;;;;;;6.50;99.90;;;;;;5046573;28;19913;-83
2023/01/15 13:44:33;;;;;;;;;;;6.50;98.20;;;;;;5045458;28;19920;-82
2023/01/15 13:47:02;;;;;;;;;;;6.50;98.60;;;;;;5027967;28;19909;-82
2023/01/15 13:49:30;;;;;;;;;;;6.50;98.50;;;;;;5039383;28;20012;-81
2023/01/15 13:52:02;;;;;;;;;;;6.60;97.40;;;;;;5046133;28;19917;-82
2023/01/15 13:54:29;;;;;;;;;;;6.60;97.20;;;;;;5026744;28;19943;-82
2023/01/15 13:57:05;;;;;;;;;;;6.60;97.00;;;;;;5046222;28;20292;-82
2023/01/15 13:59:37;;;;;;;;;;;6.60;96.00;;;;;;5046718;28;20012;-83
2023/01/15 14:02:12;;;;;;;;;;;6.60;96.00;;;;;;5033768;28;19910;-82
2023/01/15 14:04:38;;;;;;;;;;;6.50;95.40;;;;;;5059300;28;19917;-82
2023/01/15 14:07:16;;;;;;;;;;;6.40;95.80;;;;;;5029916;28;19909;-83
2023/01/15 14:09:41;;;;;;;;;;;6.40;95.50;;;;;;5044486;28;19917;-84
2023/01/15 14:12:07;;;;;;;;;;;6.40;95.70;;;;;;5035680;28;19939;-82
2023/01/15 14:14:38;;;;;;;;;;;6.40;95.60;;;;;;5027180;28;19941;-83
2023/01/15 14:17:13;;;;;;;;;;;6.30;95.60;;;;;;5038676;28;19914;-83
2023/01/15 14:19:50;;;;;;;;;;;6.30;95.80;;;;;;5048579;28;19955;-83
2023/01/15 14:22:16;;;;;;;;;;;6.30;95.40;;;;;;5029150;28;19909;-82
2023/01/15 14:24:46;;;;;;;;;;;6.20;95.90;;;;;;5048514;28;19935;-82
2023/01/15 14:27:34;;;;;;;;;;;6.20;95.50;;;;;;5043189;28;19974;-83
2023/01/15 14:30:02;;;;;;;;;;;6.20;95.40;;;;;;5025076;28;20280;-83
2023/01/15 14:32:30;;;;;;;;;;;6.10;95.50;;;;;;5042740;28;19983;-83
2023/01/15 14:34:58;;;;;;;;;;;6.00;96.20;;;;;;5041551;28;19909;-82
2023/01/15 14:37:25;;;;;;;;;;;5.90;96.50;;;;;;5042170;28;20336;-82
2023/01/15 14:39:52;;;;;;;;;;;5.90;96.80;;;;;;5020711;28;20346;-83
2023/01/15 14:45:06;;;;;;;;;;;5.70;97.60;;;;;;5041364;28;19959;-82
2023/01/15 14:47:44;;;;;;;;;;;5.60;98.20;;;;;;5057598;28;19948;-83
2023/01/15 14:50:24;;;;;;;;;;;5.50;98.50;;;;;;5041921;28;20212;-81
2023/01/15 14:52:51;;;;;;;;;;;5.40;99.10;;;;;;5040227;28;19924;-82
2023/01/15 14:55:17;;;;;;;;;;;5.20;99.90;;;;;;5020050;28;19949;-81
2023/01/15 14:57:54;;;;;;;;;;;5.10;99.90;;;;;;5019698;28;19918;-80
2023/01/15 15:00:22;;;;;;;;;;;5.00;99.90;;;;;;5040674;28;20345;-83
2023/01/15 15:02:48;;;;;;;;;;;4.90;99.90;;;;;;5040579;28;20004;-83
2023/01/15 15:05:19;;;;;;;;;;;4.80;99.90;;;;;;5041584;28;20399;-82
2023/01/15 15:07:51;;;;;;;;;;;4.80;99.90;;;;;;5027390;28;19913;-82
2023/01/15 15:10:25;;;;;;;;;;;4.70;99.90;;;;;;5041579;28;19909;-82
2023/01/15 15:13:06;;;;;;;;;;;4.60;99.90;;;;;;5027956;28;19948;-82
2023/01/15 15:15:45;;;;;;;;;;;4.50;99.90;;;;;;5012403;28;19920;-82
2023/01/15 15:18:10;;;;;;;;;;;4.40;99.90;;;;;;5038000;28;19935;-82
2023/01/15 15:20:54;;;;;;;;;;;4.30;99.90;;;;;;5036766;28;20012;-81
2023/01/15 15:23:26;;;;;;;;;;;4.20;99.90;;;;;;5013622;28;19916;-82
2023/01/15 15:26:03;;;;;;;;;;;4.20;99.90;;;;;;5041077;28;19992;-81
2023/01/15 15:28:29;;;;;;;;;;;4.20;99.90;;;;;;5022758;28;19914;-82
2023/01/15 15:30:59;;;;;;;;;;;4.10;99.90;;;;;;5041401;28;20035;-82
2023/01/15 15:33:25;;;;;;;;;;;4.20;99.90;;;;;;5022680;28;19918;-83
2023/01/15 15:35:52;;;;;;;;;;;4.20;99.90;;;;;;5042050;28;19917;-82
2023/01/15 15:38:19;;;;;;;;;;;4.20;99.90;;;;;;5042067;28;19913;-81